Terminal Aerodrome Forecast
Issued by NWS Rapid City, SD

Home | Current Version | Previous Version | Text Only | Print | Product List | Glossary Off
Versions: 1 2 3 4 5 6 7 8 9 10 11 12 13 14 15 16 17 18 19 20 21 22 23 24 25 26 27 28 29 30 31 32

076
FTUS43 KUNR 122043 AAC
TAFRAP
TAF AMD
KRAP 122043Z 1221/1318 12007KT 1/2SM -FZDZ FZFG VV002
     FM122300 VRB05KT 1SM BR OVC004
     FM130400 15009KT 1/2SM -FZDZ FZFG VV002
     FM131400 16008KT P6SM OVC008=

USA.gov is the U.S. government's official web portal to all federal, state and local government web resources and services.